Terminal Aerodrome Forecast
Issued by NWS Newport/Morehead City, NC

Home | Current Version | Previous Version | Text Only | Print | Product List | Glossary Off
Versions: 1 2 3 4 5 6 7 8 9 10 11 12 13

000
FTUS42 KMHX 101100
TAFEWN
TAF
KEWN 101130Z 1012/1112 21008KT P6SM SCT050 BKN200
     FM101500 19008KT P6SM VCTS SCT030 BKN040CB
     FM110300 20004KT P6SM VCSH BKN040 OVC200=

USA.gov is the U.S. government's official web portal to all federal, state and local government web resources and services.